New Orleans, LA (70154)

7:33 AM CST on December 22, 2014 (GMT -0600)
SnoWizard - Magazine St | Change Station
CLOSE
Current Station
Personal Weather Station
Location: New Orleans, LA
Elevation: 10 ft
Nearby Weather Stations

Elev 10 ft 29.92 °N, 90.10 °W | Updated 5 minutes ago

Rain
Rain
58.6 °F
Feels Like 58.6 °F
N
0.0
Wind Variable Wind from North
Gusts 2.0 mph

Today
High -- | Low -- °F
--% Chance of Precip.
Yesterday
High -- | Low -- °F
Precip. -- in
6:52 AM 5:05 PM
New Moon, 0% visible
Pressure 29.85 in
Visibility 2.0 miles
Clouds Mostly Cloudy 1500 ft
Mostly Cloudy 5500 ft
Overcast 8000 ft
Dew Point 58 °F
Humidity 98%
Rainfall 0.15 in
Snow Depth Not available.
UV 0 out of 12
Pollen 4.50 out of 12
Air Quality Not available.
Flu Activity Not available.
METAR KNBG 221255Z 00000KT 2SM RA BR BKN015 BKN055 OVC080 16/14 A2985 RMK AO2 RAB02 SLP106 VIS NE-E 1 P0003 T01560144 $

More Conditions Fewer Conditions

Pressure 29.85 in
Visibility 2.0 miles
Clouds Mostly Cloudy 1500 ft
Mostly Cloudy 5500 ft
Overcast 8000 ft
Dew Point 58 °F
Humidity 98%
Rainfall 0.15 in
Snow Depth Not available.
UV 0 out of 12
Pollen 4.50 out of 12
Air Quality Not available.
Flu Activity Not available.
METAR KNBG 221255Z 00000KT 2SM RA BR BKN015 BKN055 OVC080 16/14 A2985 RMK AO2 RAB02 SLP106 VIS NE-E 1 P0003 T01560144 $

More Conditions Fewer Conditions

10-Day Weather Forecast

Almanac

Astronomy

Dec. 22, 2014 Rise Set
Actual Time
Civil Twilight
Nautical Twilight
Astronomical Twilight
Moon
Length of Visible Light
Length of Day
Tomorrow will be .
, % of the Moon is Illuminated

Today's Extremes

State Highs State Lows

Community

WunderPhotos

Upload Photos

1,779,599 photos uploaded!

WunderBlogs® & News

Nearby

Air Quality

  Air Quality AQ Index Pollutant
Not available.

Snow Depth

Station Depth Elevation

Earthquake Activity

City Distance Mag. Time & Date
Minimum magnitude displayed is 2.5.

Coastal Water Temperatures

Place Temperature

Nearby Weather Stations